sensor_id;sensor_type;location;lat;lon;timestamp;P1;durP1;ratioP1;P2;durP2;ratioP2
61038;SDS011;46919;45.816;3.104;2023-08-31T00:01:51;3.60;;;1.10;;
61038;SDS011;46919;45.816;3.104;2023-08-31T00:04:18;2.40;;;1.20;;
61038;SDS011;46919;45.816;3.104;2023-08-31T00:06:43;1.70;;;1.00;;
61038;SDS011;46919;45.816;3.104;2023-08-31T00:09:11;5.22;;;0.77;;
61038;SDS011;46919;45.816;3.104;2023-08-31T00:11:37;2.63;;;1.00;;
61038;SDS011;46919;45.816;3.104;2023-08-31T00:14:02;2.25;;;1.00;;
61038;SDS011;46919;45.816;3.104;2023-08-31T00:16:28;3.70;;;0.88;;
61038;SDS011;46919;45.816;3.104;2023-08-31T00:18:58;4.03;;;1.02;;
61038;SDS011;46919;45.816;3.104;2023-08-31T00:21:24;3.90;;;1.23;;
61038;SDS011;46919;45.816;3.104;2023-08-31T00:23:50;2.15;;;1.08;;
61038;SDS011;46919;45.816;3.104;2023-08-31T00:26:15;6.00;;;1.20;;
61038;SDS011;46919;45.816;3.104;2023-08-31T00:28:41;5.65;;;1.05;;
61038;SDS011;46919;45.816;3.104;2023-08-31T00:31:08;1.23;;;0.80;;
61038;SDS011;46919;45.816;3.104;2023-08-31T00:33:33;2.28;;;0.93;;
61038;SDS011;46919;45.816;3.104;2023-08-31T00:36:00;2.40;;;1.00;;
61038;SDS011;46919;45.816;3.104;2023-08-31T00:38:29;1.38;;;0.82;;
61038;SDS011;46919;45.816;3.104;2023-08-31T00:40:57;3.42;;;0.82;;
61038;SDS011;46919;45.816;3.104;2023-08-31T00:43:22;1.88;;;0.70;;
61038;SDS011;46919;45.816;3.104;2023-08-31T00:45:48;1.13;;;0.70;;
61038;SDS011;46919;45.816;3.104;2023-08-31T00:48:16;1.20;;;0.65;;
61038;SDS011;46919;45.816;3.104;2023-08-31T00:50:43;1.98;;;0.90;;
61038;SDS011;46919;45.816;3.104;2023-08-31T00:53:10;2.38;;;1.00;;
61038;SDS011;46919;45.816;3.104;2023-08-31T00:55:36;2.88;;;0.80;;
61038;SDS011;46919;45.816;3.104;2023-08-31T00:58:01;1.65;;;0.80;;
61038;SDS011;46919;45.816;3.104;2023-08-31T01:00:51;1.85;;;0.60;;
61038;SDS011;46919;45.816;3.104;2023-08-31T01:09:00;4.47;;;0.90;;
61038;SDS011;46919;45.816;3.104;2023-08-31T01:14:19;1.80;;;0.82;;
61038;SDS011;46919;45.816;3.104;2023-08-31T01:16:49;1.88;;;0.90;;
61038;SDS011;46919;45.816;3.104;2023-08-31T01:19:21;2.00;;;0.98;;
61038;SDS011;46919;45.816;3.104;2023-08-31T01:22:00;2.15;;;1.10;;
61038;SDS011;46919;45.816;3.104;2023-08-31T01:24:31;2.72;;;0.70;;
61038;SDS011;46919;45.816;3.104;2023-08-31T01:26:57;3.80;;;1.10;;
61038;SDS011;46919;45.816;3.104;2023-08-31T01:29:22;1.65;;;0.80;;
61038;SDS011;46919;45.816;3.104;2023-08-31T01:31:48;1.90;;;0.80;;
61038;SDS011;46919;45.816;3.104;2023-08-31T01:34:13;3.50;;;0.90;;
61038;SDS011;46919;45.816;3.104;2023-08-31T01:36:41;2.80;;;1.05;;
61038;SDS011;46919;45.816;3.104;2023-08-31T01:39:19;3.33;;;0.80;;
61038;SDS011;46919;45.816;3.104;2023-08-31T01:41:54;1.42;;;0.90;;
61038;SDS011;46919;45.816;3.104;2023-08-31T01:44:23;2.67;;;0.88;;
61038;SDS011;46919;45.816;3.104;2023-08-31T01:46:53;3.03;;;0.95;;
61038;SDS011;46919;45.816;3.104;2023-08-31T01:49:21;2.38;;;1.00;;
61038;SDS011;46919;45.816;3.104;2023-08-31T01:51:47;4.30;;;1.00;;
61038;SDS011;46919;45.816;3.104;2023-08-31T01:54:13;3.05;;;1.00;;
61038;SDS011;46919;45.816;3.104;2023-08-31T01:56:38;2.75;;;1.40;;
61038;SDS011;46919;45.816;3.104;2023-08-31T01:59:03;5.65;;;1.10;;
61038;SDS011;46919;45.816;3.104;2023-08-31T02:01:29;2.97;;;1.58;;
61038;SDS011;46919;45.816;3.104;2023-08-31T02:03:57;2.67;;;1.15;;
61038;SDS011;46919;45.816;3.104;2023-08-31T02:06:22;2.78;;;1.08;;
61038;SDS011;46919;45.816;3.104;2023-08-31T02:08:48;4.55;;;1.27;;
61038;SDS011;46919;45.816;3.104;2023-08-31T02:11:13;2.97;;;1.17;;
61038;SDS011;46919;45.816;3.104;2023-08-31T02:13:38;5.10;;;1.10;;
61038;SDS011;46919;45.816;3.104;2023-08-31T02:16:04;4.28;;;1.05;;
61038;SDS011;46919;45.816;3.104;2023-08-31T02:18:29;2.72;;;1.00;;
61038;SDS011;46919;45.816;3.104;2023-08-31T02:20:54;4.75;;;1.33;;
61038;SDS011;46919;45.816;3.104;2023-08-31T02:23:20;5.03;;;1.15;;
61038;SDS011;46919;45.816;3.104;2023-08-31T02:25:45;3.28;;;1.40;;
61038;SDS011;46919;45.816;3.104;2023-08-31T02:28:11;1.75;;;0.90;;
61038;SDS011;46919;45.816;3.104;2023-08-31T02:30:36;4.30;;;1.05;;
61038;SDS011;46919;45.816;3.104;2023-08-31T02:33:02;3.97;;;1.30;;
61038;SDS011;46919;45.816;3.104;2023-08-31T02:35:28;3.83;;;1.40;;
61038;SDS011;46919;45.816;3.104;2023-08-31T02:37:53;3.05;;;1.10;;
61038;SDS011;46919;45.816;3.104;2023-08-31T02:40:18;3.38;;;1.10;;
61038;SDS011;46919;45.816;3.104;2023-08-31T02:42:46;5.25;;;1.00;;
61038;SDS011;46919;45.816;3.104;2023-08-31T02:45:12;3.92;;;1.05;;
61038;SDS011;46919;45.816;3.104;2023-08-31T02:47:37;2.92;;;1.30;;
61038;SDS011;46919;45.816;3.104;2023-08-31T02:50:03;2.88;;;1.17;;
61038;SDS011;46919;45.816;3.104;2023-08-31T02:52:29;4.05;;;1.50;;
61038;SDS011;46919;45.816;3.104;2023-08-31T02:54:54;3.17;;;1.10;;
61038;SDS011;46919;45.816;3.104;2023-08-31T02:57:20;3.97;;;1.38;;
61038;SDS011;46919;45.816;3.104;2023-08-31T02:59:49;2.75;;;1.45;;
61038;SDS011;46919;45.816;3.104;2023-08-31T03:02:15;3.83;;;1.20;;
61038;SDS011;46919;45.816;3.104;2023-08-31T03:04:40;5.20;;;1.30;;
61038;SDS011;46919;45.816;3.104;2023-08-31T03:07:06;4.53;;;1.27;;
61038;SDS011;46919;45.816;3.104;2023-08-31T03:09:31;4.05;;;1.27;;
61038;SDS011;46919;45.816;3.104;2023-08-31T03:11:56;3.90;;;1.02;;
61038;SDS011;46919;45.816;3.104;2023-08-31T03:14:22;3.78;;;1.00;;
61038;SDS011;46919;45.816;3.104;2023-08-31T03:16:47;3.33;;;1.17;;
61038;SDS011;46919;45.816;3.104;2023-08-31T03:19:14;4.57;;;1.30;;
61038;SDS011;46919;45.816;3.104;2023-08-31T03:21:39;4.43;;;1.45;;
61038;SDS011;46919;45.816;3.104;2023-08-31T03:24:05;8.57;;;1.40;;
61038;SDS011;46919;45.816;3.104;2023-08-31T03:26:30;3.28;;;1.17;;
61038;SDS011;46919;45.816;3.104;2023-08-31T03:28:56;4.80;;;1.30;;
61038;SDS011;46919;45.816;3.104;2023-08-31T03:31:21;4.35;;;1.10;;
61038;SDS011;46919;45.816;3.104;2023-08-31T03:33:47;3.28;;;1.17;;
61038;SDS011;46919;45.816;3.104;2023-08-31T03:36:12;6.03;;;1.30;;
61038;SDS011;46919;45.816;3.104;2023-08-31T03:38:38;3.65;;;1.33;;
61038;SDS011;46919;45.816;3.104;2023-08-31T03:41:03;5.35;;;1.42;;
61038;SDS011;46919;45.816;3.104;2023-08-31T03:43:29;6.57;;;1.63;;
61038;SDS011;46919;45.816;3.104;2023-08-31T03:45:55;4.72;;;1.20;;
61038;SDS011;46919;45.816;3.104;2023-08-31T03:48:24;3.80;;;1.40;;
61038;SDS011;46919;45.816;3.104;2023-08-31T03:50:53;5.20;;;1.65;;
61038;SDS011;46919;45.816;3.104;2023-08-31T03:53:19;5.90;;;1.50;;
61038;SDS011;46919;45.816;3.104;2023-08-31T03:55:45;4.68;;;1.45;;
61038;SDS011;46919;45.816;3.104;2023-08-31T03:58:11;4.68;;;1.50;;
61038;SDS011;46919;45.816;3.104;2023-08-31T04:00:37;7.70;;;1.60;;
61038;SDS011;46919;45.816;3.104;2023-08-31T04:03:03;4.82;;;1.20;;
61038;SDS011;46919;45.816;3.104;2023-08-31T04:05:31;6.00;;;1.50;;
61038;SDS011;46919;45.816;3.104;2023-08-31T04:07:58;6.57;;;1.65;;
61038;SDS011;46919;45.816;3.104;2023-08-31T04:10:23;3.53;;;1.35;;
61038;SDS011;46919;45.816;3.104;2023-08-31T04:12:50;4.28;;;1.50;;
61038;SDS011;46919;45.816;3.104;2023-08-31T04:15:15;4.78;;;1.60;;
61038;SDS011;46919;45.816;3.104;2023-08-31T04:17:41;7.88;;;2.20;;
61038;SDS011;46919;45.816;3.104;2023-08-31T04:20:06;9.32;;;1.90;;
61038;SDS011;46919;45.816;3.104;2023-08-31T04:22:33;4.97;;;1.52;;
61038;SDS011;46919;45.816;3.104;2023-08-31T04:24:59;8.50;;;1.73;;
61038;SDS011;46919;45.816;3.104;2023-08-31T04:27:24;5.78;;;1.70;;
61038;SDS011;46919;45.816;3.104;2023-08-31T04:29:49;10.32;;;1.83;;
61038;SDS011;46919;45.816;3.104;2023-08-31T04:32:15;7.45;;;1.63;;
61038;SDS011;46919;45.816;3.104;2023-08-31T04:34:40;4.10;;;1.45;;
61038;SDS011;46919;45.816;3.104;2023-08-31T04:37:06;7.65;;;1.98;;
61038;SDS011;46919;45.816;3.104;2023-08-31T04:39:31;7.57;;;1.65;;
61038;SDS011;46919;45.816;3.104;2023-08-31T04:41:56;5.32;;;1.42;;
61038;SDS011;46919;45.816;3.104;2023-08-31T04:44:22;7.25;;;1.60;;
61038;SDS011;46919;45.816;3.104;2023-08-31T04:46:47;7.60;;;1.80;;
61038;SDS011;46919;45.816;3.104;2023-08-31T04:49:13;6.43;;;1.58;;
61038;SDS011;46919;45.816;3.104;2023-08-31T04:51:38;8.55;;;1.95;;
61038;SDS011;46919;45.816;3.104;2023-08-31T04:54:06;5.68;;;1.40;;
61038;SDS011;46919;45.816;3.104;2023-08-31T04:56:33;5.97;;;1.65;;
61038;SDS011;46919;45.816;3.104;2023-08-31T04:58:59;4.88;;;1.67;;
61038;SDS011;46919;45.816;3.104;2023-08-31T05:01:24;9.48;;;1.75;;
61038;SDS011;46919;45.816;3.104;2023-08-31T05:03:50;9.05;;;1.60;;
61038;SDS011;46919;45.816;3.104;2023-08-31T05:06:16;7.20;;;1.67;;
61038;SDS011;46919;45.816;3.104;2023-08-31T05:08:41;7.97;;;2.10;;
61038;SDS011;46919;45.816;3.104;2023-08-31T05:11:06;6.53;;;1.60;;
61038;SDS011;46919;45.816;3.104;2023-08-31T05:13:32;7.38;;;1.83;;
61038;SDS011;46919;45.816;3.104;2023-08-31T05:15:58;7.13;;;1.98;;
61038;SDS011;46919;45.816;3.104;2023-08-31T05:18:24;8.65;;;1.67;;
61038;SDS011;46919;45.816;3.104;2023-08-31T05:20:49;7.05;;;1.65;;
61038;SDS011;46919;45.816;3.104;2023-08-31T05:23:15;5.32;;;1.77;;
61038;SDS011;46919;45.816;3.104;2023-08-31T05:25:43;8.90;;;1.60;;
61038;SDS011;46919;45.816;3.104;2023-08-31T05:28:09;8.98;;;1.67;;
61038;SDS011;46919;45.816;3.104;2023-08-31T05:30:35;5.10;;;1.48;;
61038;SDS011;46919;45.816;3.104;2023-08-31T05:33:01;7.63;;;1.55;;
61038;SDS011;46919;45.816;3.104;2023-08-31T05:35:26;7.63;;;1.52;;
61038;SDS011;46919;45.816;3.104;2023-08-31T05:37:52;5.97;;;1.75;;
61038;SDS011;46919;45.816;3.104;2023-08-31T05:40:17;7.53;;;1.80;;
61038;SDS011;46919;45.816;3.104;2023-08-31T05:42:43;6.30;;;1.65;;
61038;SDS011;46919;45.816;3.104;2023-08-31T05:45:09;5.10;;;1.58;;
61038;SDS011;46919;45.816;3.104;2023-08-31T05:47:34;7.78;;;1.98;;
61038;SDS011;46919;45.816;3.104;2023-08-31T05:50:00;9.77;;;1.85;;
61038;SDS011;46919;45.816;3.104;2023-08-31T05:52:26;6.72;;;1.70;;
61038;SDS011;46919;45.816;3.104;2023-08-31T05:54:51;3.00;;;1.30;;
61038;SDS011;46919;45.816;3.104;2023-08-31T05:57:20;5.05;;;1.50;;
61038;SDS011;46919;45.816;3.104;2023-08-31T05:59:47;10.55;;;2.17;;
61038;SDS011;46919;45.816;3.104;2023-08-31T06:02:12;3.63;;;1.10;;
61038;SDS011;46919;45.816;3.104;2023-08-31T06:04:38;8.00;;;1.52;;
61038;SDS011;46919;45.816;3.104;2023-08-31T06:07:03;5.05;;;1.50;;
61038;SDS011;46919;45.816;3.104;2023-08-31T06:09:29;4.75;;;1.63;;
61038;SDS011;46919;45.816;3.104;2023-08-31T06:11:54;3.08;;;1.30;;
61038;SDS011;46919;45.816;3.104;2023-08-31T06:14:19;5.22;;;1.30;;
61038;SDS011;46919;45.816;3.104;2023-08-31T06:16:45;4.95;;;1.45;;
61038;SDS011;46919;45.816;3.104;2023-08-31T06:19:10;7.47;;;1.50;;
61038;SDS011;46919;45.816;3.104;2023-08-31T06:21:36;6.43;;;1.75;;
61038;SDS011;46919;45.816;3.104;2023-08-31T06:24:01;5.10;;;1.65;;
61038;SDS011;46919;45.816;3.104;2023-08-31T06:26:27;4.65;;;1.38;;
61038;SDS011;46919;45.816;3.104;2023-08-31T06:28:53;6.90;;;1.70;;
61038;SDS011;46919;45.816;3.104;2023-08-31T06:31:18;8.45;;;1.40;;
61038;SDS011;46919;45.816;3.104;2023-08-31T06:33:44;8.60;;;1.80;;
61038;SDS011;46919;45.816;3.104;2023-08-31T06:36:09;4.05;;;1.38;;
61038;SDS011;46919;45.816;3.104;2023-08-31T06:38:35;6.43;;;1.58;;
61038;SDS011;46919;45.816;3.104;2023-08-31T06:41:01;3.45;;;1.27;;
61038;SDS011;46919;45.816;3.104;2023-08-31T06:43:27;3.97;;;1.80;;
61038;SDS011;46919;45.816;3.104;2023-08-31T06:45:53;6.10;;;1.50;;
61038;SDS011;46919;45.816;3.104;2023-08-31T06:48:18;3.70;;;1.48;;
61038;SDS011;46919;45.816;3.104;2023-08-31T06:50:44;6.30;;;1.50;;
61038;SDS011;46919;45.816;3.104;2023-08-31T06:53:10;5.38;;;1.30;;
61038;SDS011;46919;45.816;3.104;2023-08-31T06:55:35;6.55;;;2.05;;
61038;SDS011;46919;45.816;3.104;2023-08-31T06:58:01;8.57;;;2.30;;
61038;SDS011;46919;45.816;3.104;2023-08-31T07:00:27;7.80;;;1.77;;
61038;SDS011;46919;45.816;3.104;2023-08-31T07:02:53;5.70;;;1.73;;
61038;SDS011;46919;45.816;3.104;2023-08-31T07:05:18;7.20;;;1.70;;
61038;SDS011;46919;45.816;3.104;2023-08-31T07:07:50;7.60;;;1.75;;
61038;SDS011;46919;45.816;3.104;2023-08-31T07:10:19;4.88;;;1.40;;
61038;SDS011;46919;45.816;3.104;2023-08-31T07:12:45;2.90;;;1.08;;
61038;SDS011;46919;45.816;3.104;2023-08-31T07:15:10;5.28;;;1.52;;
61038;SDS011;46919;45.816;3.104;2023-08-31T07:17:36;4.88;;;1.23;;
61038;SDS011;46919;45.816;3.104;2023-08-31T07:20:01;6.63;;;1.40;;
61038;SDS011;46919;45.816;3.104;2023-08-31T07:22:30;7.55;;;1.30;;
61038;SDS011;46919;45.816;3.104;2023-08-31T07:24:57;4.85;;;1.50;;
61038;SDS011;46919;45.816;3.104;2023-08-31T07:27:22;4.35;;;1.65;;
61038;SDS011;46919;45.816;3.104;2023-08-31T07:29:48;6.10;;;1.80;;
61038;SDS011;46919;45.816;3.104;2023-08-31T07:32:13;8.20;;;1.42;;
61038;SDS011;46919;45.816;3.104;2023-08-31T07:34:39;6.57;;;1.77;;
61038;SDS011;46919;45.816;3.104;2023-08-31T07:37:04;7.22;;;2.25;;
61038;SDS011;46919;45.816;3.104;2023-08-31T07:39:31;6.57;;;1.80;;
61038;SDS011;46919;45.816;3.104;2023-08-31T07:41:56;4.50;;;1.50;;
61038;SDS011;46919;45.816;3.104;2023-08-31T07:44:23;7.00;;;1.50;;
61038;SDS011;46919;45.816;3.104;2023-08-31T07:46:48;6.32;;;1.88;;
61038;SDS011;46919;45.816;3.104;2023-08-31T07:49:14;4.50;;;1.60;;
61038;SDS011;46919;45.816;3.104;2023-08-31T07:51:39;3.30;;;1.30;;
61038;SDS011;46919;45.816;3.104;2023-08-31T07:54:05;4.63;;;1.33;;
61038;SDS011;46919;45.816;3.104;2023-08-31T07:56:30;8.07;;;1.65;;
61038;SDS011;46919;45.816;3.104;2023-08-31T07:58:55;6.20;;;1.67;;
61038;SDS011;46919;45.816;3.104;2023-08-31T08:01:21;8.25;;;1.60;;
61038;SDS011;46919;45.816;3.104;2023-08-31T08:03:46;7.70;;;1.75;;
61038;SDS011;46919;45.816;3.104;2023-08-31T08:06:12;3.95;;;1.23;;
61038;SDS011;46919;45.816;3.104;2023-08-31T08:08:37;6.07;;;1.63;;
61038;SDS011;46919;45.816;3.104;2023-08-31T08:11:04;4.63;;;1.40;;
61038;SDS011;46919;45.816;3.104;2023-08-31T08:13:30;7.10;;;1.77;;
61038;SDS011;46919;45.816;3.104;2023-08-31T08:15:55;3.65;;;1.50;;
61038;SDS011;46919;45.816;3.104;2023-08-31T08:18:20;6.65;;;1.80;;
61038;SDS011;46919;45.816;3.104;2023-08-31T08:20:52;5.63;;;1.50;;
61038;SDS011;46919;45.816;3.104;2023-08-31T08:23:18;3.65;;;1.40;;
61038;SDS011;46919;45.816;3.104;2023-08-31T08:25:44;6.47;;;1.98;;
61038;SDS011;46919;45.816;3.104;2023-08-31T08:28:10;5.13;;;1.25;;
61038;SDS011;46919;45.816;3.104;2023-08-31T08:30:36;6.13;;;1.80;;
61038;SDS011;46919;45.816;3.104;2023-08-31T08:33:01;6.88;;;1.88;;
61038;SDS011;46919;45.816;3.104;2023-08-31T08:35:27;7.88;;;1.60;;
61038;SDS011;46919;45.816;3.104;2023-08-31T08:37:53;5.68;;;1.60;;
61038;SDS011;46919;45.816;3.104;2023-08-31T08:40:18;5.20;;;1.48;;
61038;SDS011;46919;45.816;3.104;2023-08-31T08:42:43;7.57;;;1.60;;
61038;SDS011;46919;45.816;3.104;2023-08-31T08:45:12;7.82;;;1.83;;
61038;SDS011;46919;45.816;3.104;2023-08-31T08:47:42;3.60;;;1.38;;
61038;SDS011;46919;45.816;3.104;2023-08-31T08:50:10;7.78;;;1.75;;
61038;SDS011;46919;45.816;3.104;2023-08-31T08:52:36;3.60;;;1.52;;
61038;SDS011;46919;45.816;3.104;2023-08-31T08:55:02;5.07;;;1.58;;
61038;SDS011;46919;45.816;3.104;2023-08-31T08:57:30;3.80;;;1.35;;
61038;SDS011;46919;45.816;3.104;2023-08-31T08:59:57;4.97;;;1.70;;
61038;SDS011;46919;45.816;3.104;2023-08-31T09:02:22;5.85;;;1.83;;
61038;SDS011;46919;45.816;3.104;2023-08-31T09:04:48;4.65;;;1.65;;
61038;SDS011;46919;45.816;3.104;2023-08-31T09:07:14;4.50;;;1.40;;
61038;SDS011;46919;45.816;3.104;2023-08-31T09:09:52;4.80;;;1.42;;
61038;SDS011;46919;45.816;3.104;2023-08-31T09:12:21;5.65;;;1.80;;
61038;SDS011;46919;45.816;3.104;2023-08-31T09:14:58;3.80;;;1.50;;
61038;SDS011;46919;45.816;3.104;2023-08-31T09:17:25;5.85;;;1.90;;
61038;SDS011;46919;45.816;3.104;2023-08-31T09:20:00;6.32;;;1.40;;
61038;SDS011;46919;45.816;3.104;2023-08-31T09:22:28;5.18;;;1.92;;
61038;SDS011;46919;45.816;3.104;2023-08-31T09:24:54;6.40;;;1.50;;
61038;SDS011;46919;45.816;3.104;2023-08-31T09:27:19;4.65;;;1.50;;
61038;SDS011;46919;45.816;3.104;2023-08-31T09:29:46;4.47;;;1.40;;
61038;SDS011;46919;45.816;3.104;2023-08-31T09:32:16;3.28;;;1.60;;
61038;SDS011;46919;45.816;3.104;2023-08-31T09:34:44;4.18;;;1.38;;
61038;SDS011;46919;45.816;3.104;2023-08-31T09:37:10;5.25;;;1.55;;
61038;SDS011;46919;45.816;3.104;2023-08-31T09:39:41;4.35;;;1.30;;
61038;SDS011;46919;45.816;3.104;2023-08-31T09:42:07;6.07;;;1.35;;
61038;SDS011;46919;45.816;3.104;2023-08-31T09:44:33;5.22;;;1.60;;
61038;SDS011;46919;45.816;3.104;2023-08-31T09:46:59;3.83;;;1.15;;
61038;SDS011;46919;45.816;3.104;2023-08-31T09:49:25;2.85;;;1.20;;
61038;SDS011;46919;45.816;3.104;2023-08-31T09:51:51;2.90;;;1.20;;
61038;SDS011;46919;45.816;3.104;2023-08-31T09:54:18;3.78;;;1.33;;
61038;SDS011;46919;45.816;3.104;2023-08-31T09:56:45;5.22;;;2.03;;
61038;SDS011;46919;45.816;3.104;2023-08-31T09:59:12;3.83;;;1.30;;
61038;SDS011;46919;45.816;3.104;2023-08-31T10:01:39;4.03;;;1.20;;
61038;SDS011;46919;45.816;3.104;2023-08-31T10:04:05;2.95;;;1.25;;
61038;SDS011;46919;45.816;3.104;2023-08-31T10:06:34;5.10;;;1.60;;
61038;SDS011;46919;45.816;3.104;2023-08-31T10:09:01;4.68;;;1.42;;
61038;SDS011;46919;45.816;3.104;2023-08-31T10:11:27;4.78;;;1.30;;
61038;SDS011;46919;45.816;3.104;2023-08-31T10:13:54;5.97;;;1.63;;
61038;SDS011;46919;45.816;3.104;2023-08-31T10:16:20;4.43;;;1.50;;
61038;SDS011;46919;45.816;3.104;2023-08-31T10:18:46;4.95;;;1.45;;
61038;SDS011;46919;45.816;3.104;2023-08-31T10:21:15;4.35;;;1.30;;
61038;SDS011;46919;45.816;3.104;2023-08-31T10:23:47;4.85;;;1.48;;
61038;SDS011;46919;45.816;3.104;2023-08-31T10:26:27;5.22;;;1.25;;
61038;SDS011;46919;45.816;3.104;2023-08-31T10:28:56;4.75;;;1.42;;
61038;SDS011;46919;45.816;3.104;2023-08-31T10:31:23;4.05;;;1.42;;
61038;SDS011;46919;45.816;3.104;2023-08-31T10:34:04;3.42;;;1.42;;
61038;SDS011;46919;45.816;3.104;2023-08-31T10:36:41;5.45;;;1.38;;
61038;SDS011;46919;45.816;3.104;2023-08-31T10:41:41;2.95;;;1.35;;
61038;SDS011;46919;45.816;3.104;2023-08-31T10:44:26;3.25;;;1.10;;
61038;SDS011;46919;45.816;3.104;2023-08-31T10:46:53;2.10;;;0.90;;
61038;SDS011;46919;45.816;3.104;2023-08-31T10:49:20;3.53;;;1.30;;
61038;SDS011;46919;45.816;3.104;2023-08-31T10:51:48;2.67;;;1.10;;
61038;SDS011;46919;45.816;3.104;2023-08-31T10:54:20;3.72;;;1.20;;
61038;SDS011;46919;45.816;3.104;2023-08-31T10:57:08;4.72;;;1.30;;
61038;SDS011;46919;45.816;3.104;2023-08-31T10:59:52;2.72;;;1.15;;
61038;SDS011;46919;45.816;3.104;2023-08-31T11:05:00;2.90;;;0.95;;
61038;SDS011;46919;45.816;3.104;2023-08-31T11:10:08;3.13;;;0.90;;
61038;SDS011;46919;45.816;3.104;2023-08-31T11:12:37;3.05;;;0.80;;
61038;SDS011;46919;45.816;3.104;2023-08-31T11:15:04;3.58;;;0.98;;
61038;SDS011;46919;45.816;3.104;2023-08-31T11:17:30;2.55;;;0.80;;
61038;SDS011;46919;45.816;3.104;2023-08-31T11:19:58;2.85;;;0.70;;
61038;SDS011;46919;45.816;3.104;2023-08-31T11:22:25;3.03;;;0.80;;
61038;SDS011;46919;45.816;3.104;2023-08-31T11:24:51;2.45;;;0.80;;
61038;SDS011;46919;45.816;3.104;2023-08-31T11:27:19;1.45;;;0.60;;
61038;SDS011;46919;45.816;3.104;2023-08-31T11:29:45;0.75;;;0.40;;
61038;SDS011;46919;45.816;3.104;2023-08-31T11:32:11;0.80;;;0.30;;
61038;SDS011;46919;45.816;3.104;2023-08-31T11:34:40;0.75;;;0.38;;
61038;SDS011;46919;45.816;3.104;2023-08-31T11:37:10;2.30;;;0.50;;
61038;SDS011;46919;45.816;3.104;2023-08-31T11:39:39;1.10;;;0.40;;
61038;SDS011;46919;45.816;3.104;2023-08-31T11:42:05;1.00;;;0.50;;
61038;SDS011;46919;45.816;3.104;2023-08-31T11:44:31;1.13;;;0.40;;
61038;SDS011;46919;45.816;3.104;2023-08-31T11:46:56;1.48;;;0.52;;
61038;SDS011;46919;45.816;3.104;2023-08-31T11:49:22;2.97;;;0.68;;
61038;SDS011;46919;45.816;3.104;2023-08-31T11:51:48;4.20;;;1.38;;
61038;SDS011;46919;45.816;3.104;2023-08-31T11:54:16;1.48;;;0.75;;
61038;SDS011;46919;45.816;3.104;2023-08-31T11:56:42;1.77;;;0.52;;
61038;SDS011;46919;45.816;3.104;2023-08-31T11:59:12;0.98;;;0.40;;
61038;SDS011;46919;45.816;3.104;2023-08-31T12:01:47;1.50;;;0.60;;
61038;SDS011;46919;45.816;3.104;2023-08-31T12:04:21;1.50;;;0.50;;
61038;SDS011;46919;45.816;3.104;2023-08-31T12:06:51;2.35;;;0.60;;
61038;SDS011;46919;45.816;3.104;2023-08-31T12:09:17;1.73;;;0.68;;
61038;SDS011;46919;45.816;3.104;2023-08-31T12:11:52;2.83;;;0.60;;
61038;SDS011;46919;45.816;3.104;2023-08-31T12:14:21;1.25;;;0.50;;
61038;SDS011;46919;45.816;3.104;2023-08-31T12:16:48;0.45;;;0.30;;
61038;SDS011;46919;45.816;3.104;2023-08-31T12:19:14;0.98;;;0.50;;
61038;SDS011;46919;45.816;3.104;2023-08-31T12:21:41;1.10;;;0.30;;
61038;SDS011;46919;45.816;3.104;2023-08-31T12:24:08;1.25;;;0.40;;
61038;SDS011;46919;45.816;3.104;2023-08-31T12:26:34;0.45;;;0.30;;
61038;SDS011;46919;45.816;3.104;2023-08-31T12:29:00;1.25;;;0.70;;
61038;SDS011;46919;45.816;3.104;2023-08-31T12:31:25;0.70;;;0.30;;
61038;SDS011;46919;45.816;3.104;2023-08-31T12:33:51;0.85;;;0.30;;
61038;SDS011;46919;45.816;3.104;2023-08-31T12:36:17;2.33;;;0.60;;
61038;SDS011;46919;45.816;3.104;2023-08-31T12:38:42;1.20;;;0.32;;
61038;SDS011;46919;45.816;3.104;2023-08-31T12:41:08;1.88;;;0.40;;
61038;SDS011;46919;45.816;3.104;2023-08-31T12:43:34;1.63;;;0.40;;
61038;SDS011;46919;45.816;3.104;2023-08-31T12:45:59;1.65;;;0.32;;
61038;SDS011;46919;45.816;3.104;2023-08-31T12:48:25;0.77;;;0.57;;
61038;SDS011;46919;45.816;3.104;2023-08-31T12:50:51;1.05;;;0.43;;
61038;SDS011;46919;45.816;3.104;2023-08-31T12:53:18;3.22;;;0.40;;
61038;SDS011;46919;45.816;3.104;2023-08-31T12:55:46;1.70;;;0.50;;
61038;SDS011;46919;45.816;3.104;2023-08-31T12:58:11;0.40;;;0.30;;
61038;SDS011;46919;45.816;3.104;2023-08-31T13:00:36;1.08;;;0.30;;
61038;SDS011;46919;45.816;3.104;2023-08-31T13:03:02;2.45;;;0.50;;
61038;SDS011;46919;45.816;3.104;2023-08-31T13:05:28;1.15;;;0.38;;
61038;SDS011;46919;45.816;3.104;2023-08-31T13:07:54;1.10;;;0.40;;
61038;SDS011;46919;45.816;3.104;2023-08-31T13:10:19;0.40;;;0.40;;
61038;SDS011;46919;45.816;3.104;2023-08-31T13:12:45;0.52;;;0.30;;
61038;SDS011;46919;45.816;3.104;2023-08-31T13:15:11;1.63;;;0.50;;
61038;SDS011;46919;45.816;3.104;2023-08-31T13:17:36;0.90;;;0.47;;
61038;SDS011;46919;45.816;3.104;2023-08-31T13:20:02;2.90;;;0.60;;
61038;SDS011;46919;45.816;3.104;2023-08-31T13:22:28;2.10;;;0.50;;
61038;SDS011;46919;45.816;3.104;2023-08-31T13:24:54;1.17;;;0.40;;
61038;SDS011;46919;45.816;3.104;2023-08-31T13:27:19;1.40;;;0.65;;
61038;SDS011;46919;45.816;3.104;2023-08-31T13:29:45;1.70;;;0.60;;
61038;SDS011;46919;45.816;3.104;2023-08-31T13:32:10;1.58;;;0.50;;
61038;SDS011;46919;45.816;3.104;2023-08-31T13:34:36;2.10;;;0.50;;
61038;SDS011;46919;45.816;3.104;2023-08-31T13:37:04;1.90;;;0.80;;
61038;SDS011;46919;45.816;3.104;2023-08-31T13:39:30;2.05;;;0.55;;
61038;SDS011;46919;45.816;3.104;2023-08-31T13:41:56;1.42;;;0.55;;
61038;SDS011;46919;45.816;3.104;2023-08-31T13:44:22;1.30;;;0.50;;
61038;SDS011;46919;45.816;3.104;2023-08-31T13:46:47;1.40;;;0.55;;
61038;SDS011;46919;45.816;3.104;2023-08-31T13:49:13;2.35;;;0.70;;
61038;SDS011;46919;45.816;3.104;2023-08-31T13:51:39;1.73;;;0.65;;
61038;SDS011;46919;45.816;3.104;2023-08-31T13:54:05;2.95;;;1.08;;
61038;SDS011;46919;45.816;3.104;2023-08-31T13:56:32;2.08;;;0.68;;
61038;SDS011;46919;45.816;3.104;2023-08-31T13:58:58;2.15;;;0.60;;
61038;SDS011;46919;45.816;3.104;2023-08-31T14:01:24;1.20;;;0.50;;
61038;SDS011;46919;45.816;3.104;2023-08-31T14:03:50;0.90;;;0.52;;
61038;SDS011;46919;45.816;3.104;2023-08-31T14:06:15;4.00;;;0.80;;
61038;SDS011;46919;45.816;3.104;2023-08-31T14:08:41;1.60;;;0.60;;
61038;SDS011;46919;45.816;3.104;2023-08-31T14:11:06;1.00;;;0.50;;
61038;SDS011;46919;45.816;3.104;2023-08-31T14:13:32;1.58;;;0.63;;
61038;SDS011;46919;45.816;3.104;2023-08-31T14:15:58;2.15;;;0.60;;
61038;SDS011;46919;45.816;3.104;2023-08-31T14:18:26;0.68;;;0.47;;
61038;SDS011;46919;45.816;3.104;2023-08-31T14:20:53;1.88;;;0.80;;
61038;SDS011;46919;45.816;3.104;2023-08-31T14:23:19;2.13;;;0.60;;
61038;SDS011;46919;45.816;3.104;2023-08-31T14:25:44;2.22;;;0.50;;
61038;SDS011;46919;45.816;3.104;2023-08-31T14:28:10;3.15;;;0.88;;
61038;SDS011;46919;45.816;3.104;2023-08-31T14:30:35;1.50;;;0.70;;
61038;SDS011;46919;45.816;3.104;2023-08-31T14:33:01;1.58;;;0.60;;
61038;SDS011;46919;45.816;3.104;2023-08-31T14:35:27;2.55;;;0.60;;
61038;SDS011;46919;45.816;3.104;2023-08-31T14:37:53;1.48;;;0.50;;
61038;SDS011;46919;45.816;3.104;2023-08-31T14:40:18;1.80;;;0.80;;
61038;SDS011;46919;45.816;3.104;2023-08-31T14:42:44;1.50;;;0.50;;
61038;SDS011;46919;45.816;3.104;2023-08-31T14:45:09;2.13;;;0.50;;
61038;SDS011;46919;45.816;3.104;2023-08-31T14:47:35;3.10;;;0.93;;
61038;SDS011;46919;45.816;3.104;2023-08-31T14:50:00;1.88;;;0.60;;
61038;SDS011;46919;45.816;3.104;2023-08-31T14:52:26;1.95;;;0.40;;
61038;SDS011;46919;45.816;3.104;2023-08-31T14:54:51;1.25;;;0.50;;
61038;SDS011;46919;45.816;3.104;2023-08-31T14:57:17;2.38;;;0.50;;
61038;SDS011;46919;45.816;3.104;2023-08-31T14:59:43;1.52;;;0.68;;
61038;SDS011;46919;45.816;3.104;2023-08-31T15:02:09;1.63;;;0.65;;